sensor_id;sensor_type;location;lat;lon;timestamp;temperature;humidity
60234;DHT22;49514;43.538;-5.708;2024-03-02T00:02:11;11.40;99.90
60234;DHT22;49514;43.538;-5.708;2024-03-02T00:04:38;11.40;99.90
60234;DHT22;49514;43.538;-5.708;2024-03-02T00:07:05;11.40;99.90
60234;DHT22;49514;43.538;-5.708;2024-03-02T00:09:32;11.50;99.90
60234;DHT22;49514;43.538;-5.708;2024-03-02T00:12:02;11.60;99.90
60234;DHT22;49514;43.538;-5.708;2024-03-02T00:14:29;11.60;99.90
60234;DHT22;49514;43.538;-5.708;2024-03-02T00:17:05;11.60;99.90
60234;DHT22;49514;43.538;-5.708;2024-03-02T00:19:34;11.50;99.90
60234;DHT22;49514;43.538;-5.708;2024-03-02T00:22:05;11.60;99.90
60234;DHT22;49514;43.538;-5.708;2024-03-02T00:24:34;11.70;99.90
60234;DHT22;49514;43.538;-5.708;2024-03-02T00:27:01;11.70;99.90
60234;DHT22;49514;43.538;-5.708;2024-03-02T00:37:06;12.00;99.90
60234;DHT22;49514;43.538;-5.708;2024-03-02T00:39:33;12.00;99.90
60234;DHT22;49514;43.538;-5.708;2024-03-02T00:47:01;12.20;99.90
60234;DHT22;49514;43.538;-5.708;2024-03-02T00:49:27;12.30;99.90
60234;DHT22;49514;43.538;-5.708;2024-03-02T00:51:54;12.30;99.90
60234;DHT22;49514;43.538;-5.708;2024-03-02T00:54:22;12.30;99.90
60234;DHT22;49514;43.538;-5.708;2024-03-02T00:56:50;12.30;99.90
60234;DHT22;49514;43.538;-5.708;2024-03-02T00:59:16;12.30;99.90
60234;DHT22;49514;43.538;-5.708;2024-03-02T01:01:43;12.30;99.90
60234;DHT22;49514;43.538;-5.708;2024-03-02T01:04:09;12.20;99.90
60234;DHT22;49514;43.538;-5.708;2024-03-02T01:06:35;12.30;99.90
60234;DHT22;49514;43.538;-5.708;2024-03-02T01:09:02;12.20;99.90
60234;DHT22;49514;43.538;-5.708;2024-03-02T01:11:28;12.20;99.90
60234;DHT22;49514;43.538;-5.708;2024-03-02T01:13:56;12.20;99.90
60234;DHT22;49514;43.538;-5.708;2024-03-02T01:16:22;12.20;99.90
60234;DHT22;49514;43.538;-5.708;2024-03-02T01:18:49;12.20;99.90
60234;DHT22;49514;43.538;-5.708;2024-03-02T01:21:15;12.20;99.90
60234;DHT22;49514;43.538;-5.708;2024-03-02T01:23:42;12.20;99.90
60234;DHT22;49514;43.538;-5.708;2024-03-02T01:26:08;12.20;99.90
60234;DHT22;49514;43.538;-5.708;2024-03-02T01:28:34;12.20;99.90
60234;DHT22;49514;43.538;-5.708;2024-03-02T01:31:01;12.20;99.90
60234;DHT22;49514;43.538;-5.708;2024-03-02T01:33:28;12.20;99.90
60234;DHT22;49514;43.538;-5.708;2024-03-02T01:35:54;12.20;99.90
60234;DHT22;49514;43.538;-5.708;2024-03-02T01:38:20;12.20;99.90
60234;DHT22;49514;43.538;-5.708;2024-03-02T01:40:47;12.20;99.90
60234;DHT22;49514;43.538;-5.708;2024-03-02T01:43:13;12.20;99.90
60234;DHT22;49514;43.538;-5.708;2024-03-02T01:45:41;12.20;99.90
60234;DHT22;49514;43.538;-5.708;2024-03-02T01:48:07;12.20;99.90
60234;DHT22;49514;43.538;-5.708;2024-03-02T01:50:34;12.20;99.90
60234;DHT22;49514;43.538;-5.708;2024-03-02T01:53:01;12.20;99.90
60234;DHT22;49514;43.538;-5.708;2024-03-02T01:55:29;12.20;99.90
60234;DHT22;49514;43.538;-5.708;2024-03-02T01:57:56;12.30;99.90
60234;DHT22;49514;43.538;-5.708;2024-03-02T02:00:22;12.30;99.90
60234;DHT22;49514;43.538;-5.708;2024-03-02T02:02:51;12.30;99.90
60234;DHT22;49514;43.538;-5.708;2024-03-02T02:05:17;12.30;99.90
60234;DHT22;49514;43.538;-5.708;2024-03-02T02:07:44;12.30;99.90
60234;DHT22;49514;43.538;-5.708;2024-03-02T02:10:10;12.30;99.90
60234;DHT22;49514;43.538;-5.708;2024-03-02T02:12:37;12.30;99.90
60234;DHT22;49514;43.538;-5.708;2024-03-02T02:15:04;12.30;99.90
60234;DHT22;49514;43.538;-5.708;2024-03-02T02:17:31;12.30;99.90
60234;DHT22;49514;43.538;-5.708;2024-03-02T02:19:58;12.30;99.90
60234;DHT22;49514;43.538;-5.708;2024-03-02T02:22:24;12.30;99.90
60234;DHT22;49514;43.538;-5.708;2024-03-02T02:24:50;12.20;99.90
60234;DHT22;49514;43.538;-5.708;2024-03-02T02:27:17;12.20;99.90
60234;DHT22;49514;43.538;-5.708;2024-03-02T02:29:43;12.20;99.90
60234;DHT22;49514;43.538;-5.708;2024-03-02T02:32:09;12.20;99.90
60234;DHT22;49514;43.538;-5.708;2024-03-02T02:34:36;12.10;99.90
60234;DHT22;49514;43.538;-5.708;2024-03-02T02:37:02;12.10;99.90
60234;DHT22;49514;43.538;-5.708;2024-03-02T02:39:28;12.10;99.90
60234;DHT22;49514;43.538;-5.708;2024-03-02T02:41:55;12.10;99.90
60234;DHT22;49514;43.538;-5.708;2024-03-02T02:44:22;12.10;99.90
60234;DHT22;49514;43.538;-5.708;2024-03-02T02:46:49;12.10;99.90
60234;DHT22;49514;43.538;-5.708;2024-03-02T02:49:15;12.10;99.90
60234;DHT22;49514;43.538;-5.708;2024-03-02T02:51:42;12.10;99.90
60234;DHT22;49514;43.538;-5.708;2024-03-02T02:54:08;12.10;99.90
60234;DHT22;49514;43.538;-5.708;2024-03-02T02:56:34;12.10;99.90
60234;DHT22;49514;43.538;-5.708;2024-03-02T02:59:01;12.20;99.90
60234;DHT22;49514;43.538;-5.708;2024-03-02T03:01:27;12.20;99.90
60234;DHT22;49514;43.538;-5.708;2024-03-02T03:03:54;12.20;99.90
60234;DHT22;49514;43.538;-5.708;2024-03-02T03:06:20;12.20;99.90
60234;DHT22;49514;43.538;-5.708;2024-03-02T03:08:47;12.20;99.90
60234;DHT22;49514;43.538;-5.708;2024-03-02T03:11:13;12.20;99.90
60234;DHT22;49514;43.538;-5.708;2024-03-02T03:13:40;12.20;99.90
60234;DHT22;49514;43.538;-5.708;2024-03-02T03:16:06;12.20;99.90
60234;DHT22;49514;43.538;-5.708;2024-03-02T03:18:33;12.20;99.90
60234;DHT22;49514;43.538;-5.708;2024-03-02T03:20:59;12.20;99.90
60234;DHT22;49514;43.538;-5.708;2024-03-02T03:23:25;12.20;99.90
60234;DHT22;49514;43.538;-5.708;2024-03-02T03:25:52;12.10;99.90
60234;DHT22;49514;43.538;-5.708;2024-03-02T03:28:18;12.10;99.90
60234;DHT22;49514;43.538;-5.708;2024-03-02T03:30:45;12.10;99.90
60234;DHT22;49514;43.538;-5.708;2024-03-02T03:33:11;12.00;99.90
60234;DHT22;49514;43.538;-5.708;2024-03-02T03:35:37;12.00;99.90
60234;DHT22;49514;43.538;-5.708;2024-03-02T03:38:04;12.00;99.90
60234;DHT22;49514;43.538;-5.708;2024-03-02T03:40:30;12.00;99.90
60234;DHT22;49514;43.538;-5.708;2024-03-02T03:42:57;12.00;99.90
60234;DHT22;49514;43.538;-5.708;2024-03-02T03:45:23;12.00;99.90
60234;DHT22;49514;43.538;-5.708;2024-03-02T03:47:52;12.00;99.90
60234;DHT22;49514;43.538;-5.708;2024-03-02T03:50:18;12.00;99.90
60234;DHT22;49514;43.538;-5.708;2024-03-02T03:52:45;12.00;99.90
60234;DHT22;49514;43.538;-5.708;2024-03-02T03:55:12;12.10;99.90
60234;DHT22;49514;43.538;-5.708;2024-03-02T03:57:38;12.10;99.90
60234;DHT22;49514;43.538;-5.708;2024-03-02T04:00:05;12.10;99.90
60234;DHT22;49514;43.538;-5.708;2024-03-02T04:02:38;12.10;99.90
60234;DHT22;49514;43.538;-5.708;2024-03-02T04:05:04;12.10;99.90
60234;DHT22;49514;43.538;-5.708;2024-03-02T04:07:35;12.10;99.90
60234;DHT22;49514;43.538;-5.708;2024-03-02T04:10:06;12.10;99.90
60234;DHT22;49514;43.538;-5.708;2024-03-02T04:12:34;12.10;99.90
60234;DHT22;49514;43.538;-5.708;2024-03-02T04:15:02;12.10;99.90
60234;DHT22;49514;43.538;-5.708;2024-03-02T04:17:31;12.20;99.90
60234;DHT22;49514;43.538;-5.708;2024-03-02T04:19:58;12.20;99.90
60234;DHT22;49514;43.538;-5.708;2024-03-02T04:22:25;12.10;99.90
60234;DHT22;49514;43.538;-5.708;2024-03-02T04:24:51;12.20;99.90
60234;DHT22;49514;43.538;-5.708;2024-03-02T04:27:18;12.20;99.90
60234;DHT22;49514;43.538;-5.708;2024-03-02T04:29:44;12.30;99.90
60234;DHT22;49514;43.538;-5.708;2024-03-02T04:32:10;12.30;99.90
60234;DHT22;49514;43.538;-5.708;2024-03-02T04:34:38;12.30;99.90
60234;DHT22;49514;43.538;-5.708;2024-03-02T04:37:04;12.30;99.90
60234;DHT22;49514;43.538;-5.708;2024-03-02T04:39:31;12.30;99.90
60234;DHT22;49514;43.538;-5.708;2024-03-02T04:41:57;12.30;99.90
60234;DHT22;49514;43.538;-5.708;2024-03-02T04:44:24;12.40;99.90
60234;DHT22;49514;43.538;-5.708;2024-03-02T04:46:50;12.30;99.90
60234;DHT22;49514;43.538;-5.708;2024-03-02T04:49:17;12.30;99.90
60234;DHT22;49514;43.538;-5.708;2024-03-02T04:51:43;12.40;99.90
60234;DHT22;49514;43.538;-5.708;2024-03-02T04:54:09;12.30;99.90
60234;DHT22;49514;43.538;-5.708;2024-03-02T04:56:36;12.30;99.90
60234;DHT22;49514;43.538;-5.708;2024-03-02T04:59:10;12.40;99.90
60234;DHT22;49514;43.538;-5.708;2024-03-02T05:01:37;12.40;99.90
60234;DHT22;49514;43.538;-5.708;2024-03-02T05:04:03;12.40;99.90
60234;DHT22;49514;43.538;-5.708;2024-03-02T05:06:30;12.30;99.90
60234;DHT22;49514;43.538;-5.708;2024-03-02T05:08:56;12.40;99.90
60234;DHT22;49514;43.538;-5.708;2024-03-02T05:11:22;12.40;99.90
60234;DHT22;49514;43.538;-5.708;2024-03-02T05:14:05;12.40;99.90
60234;DHT22;49514;43.538;-5.708;2024-03-02T05:16:35;12.40;99.90
60234;DHT22;49514;43.538;-5.708;2024-03-02T05:19:02;12.40;99.90
60234;DHT22;49514;43.538;-5.708;2024-03-02T05:21:29;12.40;99.90
60234;DHT22;49514;43.538;-5.708;2024-03-02T05:23:55;12.40;99.90
60234;DHT22;49514;43.538;-5.708;2024-03-02T05:26:21;12.30;99.90
60234;DHT22;49514;43.538;-5.708;2024-03-02T05:28:48;12.30;99.90
60234;DHT22;49514;43.538;-5.708;2024-03-02T05:31:17;12.40;99.90
60234;DHT22;49514;43.538;-5.708;2024-03-02T05:33:43;12.40;99.90
60234;DHT22;49514;43.538;-5.708;2024-03-02T05:36:09;12.40;99.90
60234;DHT22;49514;43.538;-5.708;2024-03-02T05:38:36;12.40;99.90
60234;DHT22;49514;43.538;-5.708;2024-03-02T05:41:02;12.40;99.90
60234;DHT22;49514;43.538;-5.708;2024-03-02T05:43:29;12.40;99.90
60234;DHT22;49514;43.538;-5.708;2024-03-02T05:45:55;12.50;99.90
60234;DHT22;49514;43.538;-5.708;2024-03-02T05:48:21;12.50;99.90
60234;DHT22;49514;43.538;-5.708;2024-03-02T05:50:48;12.50;99.90
60234;DHT22;49514;43.538;-5.708;2024-03-02T05:53:14;12.40;99.90
60234;DHT22;49514;43.538;-5.708;2024-03-02T05:55:42;12.40;99.90
60234;DHT22;49514;43.538;-5.708;2024-03-02T05:58:08;12.40;99.90
60234;DHT22;49514;43.538;-5.708;2024-03-02T06:00:48;12.40;99.90
60234;DHT22;49514;43.538;-5.708;2024-03-02T06:03:15;12.30;99.90
60234;DHT22;49514;43.538;-5.708;2024-03-02T06:05:41;12.40;99.90
60234;DHT22;49514;43.538;-5.708;2024-03-02T06:08:07;12.40;99.90
60234;DHT22;49514;43.538;-5.708;2024-03-02T06:10:34;12.40;99.90
60234;DHT22;49514;43.538;-5.708;2024-03-02T06:13:00;12.40;99.90
60234;DHT22;49514;43.538;-5.708;2024-03-02T06:15:26;12.40;99.90
60234;DHT22;49514;43.538;-5.708;2024-03-02T06:17:53;12.40;99.90
60234;DHT22;49514;43.538;-5.708;2024-03-02T06:20:19;12.50;99.90
60234;DHT22;49514;43.538;-5.708;2024-03-02T06:22:46;12.40;99.90
60234;DHT22;49514;43.538;-5.708;2024-03-02T06:25:12;12.40;99.90
60234;DHT22;49514;43.538;-5.708;2024-03-02T06:27:39;12.40;99.90
60234;DHT22;49514;43.538;-5.708;2024-03-02T06:30:05;12.40;99.90
60234;DHT22;49514;43.538;-5.708;2024-03-02T06:32:32;12.40;99.90
60234;DHT22;49514;43.538;-5.708;2024-03-02T06:34:58;12.30;99.90
60234;DHT22;49514;43.538;-5.708;2024-03-02T06:37:25;12.40;99.90
60234;DHT22;49514;43.538;-5.708;2024-03-02T06:39:52;12.30;99.90
60234;DHT22;49514;43.538;-5.708;2024-03-02T06:42:19;12.30;99.90
60234;DHT22;49514;43.538;-5.708;2024-03-02T06:44:45;12.20;99.90
60234;DHT22;49514;43.538;-5.708;2024-03-02T06:47:11;12.20;99.90
60234;DHT22;49514;43.538;-5.708;2024-03-02T06:49:38;12.20;99.90
60234;DHT22;49514;43.538;-5.708;2024-03-02T06:52:04;12.20;99.90
60234;DHT22;49514;43.538;-5.708;2024-03-02T06:54:30;12.10;99.90
60234;DHT22;49514;43.538;-5.708;2024-03-02T06:56:56;12.10;99.90
60234;DHT22;49514;43.538;-5.708;2024-03-02T06:59:23;12.00;99.90
60234;DHT22;49514;43.538;-5.708;2024-03-02T07:01:50;11.90;99.90
60234;DHT22;49514;43.538;-5.708;2024-03-02T07:04:17;11.80;99.90
60234;DHT22;49514;43.538;-5.708;2024-03-02T07:06:43;11.60;99.90
60234;DHT22;49514;43.538;-5.708;2024-03-02T07:09:09;11.30;99.90
60234;DHT22;49514;43.538;-5.708;2024-03-02T07:11:37;10.80;99.90
60234;DHT22;49514;43.538;-5.708;2024-03-02T07:14:03;10.40;99.90
60234;DHT22;49514;43.538;-5.708;2024-03-02T07:16:29;10.10;99.90
60234;DHT22;49514;43.538;-5.708;2024-03-02T07:18:58;10.00;99.90
60234;DHT22;49514;43.538;-5.708;2024-03-02T07:21:28;9.80;99.90
60234;DHT22;49514;43.538;-5.708;2024-03-02T07:23:54;9.60;99.90
60234;DHT22;49514;43.538;-5.708;2024-03-02T07:26:21;9.30;99.90
60234;DHT22;49514;43.538;-5.708;2024-03-02T07:28:48;9.20;99.90
60234;DHT22;49514;43.538;-5.708;2024-03-02T07:31:15;9.10;99.90
60234;DHT22;49514;43.538;-5.708;2024-03-02T07:33:41;9.00;99.90
60234;DHT22;49514;43.538;-5.708;2024-03-02T07:36:09;8.90;99.90
60234;DHT22;49514;43.538;-5.708;2024-03-02T07:38:35;8.80;99.90
60234;DHT22;49514;43.538;-5.708;2024-03-02T07:41:02;8.80;99.90
60234;DHT22;49514;43.538;-5.708;2024-03-02T07:43:30;8.70;99.90
60234;DHT22;49514;43.538;-5.708;2024-03-02T07:45:59;8.70;99.90
60234;DHT22;49514;43.538;-5.708;2024-03-02T07:48:25;8.60;99.90
60234;DHT22;49514;43.538;-5.708;2024-03-02T07:50:51;8.60;99.90
60234;DHT22;49514;43.538;-5.708;2024-03-02T07:53:18;8.60;99.90
60234;DHT22;49514;43.538;-5.708;2024-03-02T07:55:44;8.60;99.90
60234;DHT22;49514;43.538;-5.708;2024-03-02T07:58:10;8.60;99.90
60234;DHT22;49514;43.538;-5.708;2024-03-02T08:00:38;8.60;99.90
60234;DHT22;49514;43.538;-5.708;2024-03-02T08:03:05;8.60;99.90
60234;DHT22;49514;43.538;-5.708;2024-03-02T08:05:32;8.50;99.90
60234;DHT22;49514;43.538;-5.708;2024-03-02T08:07:58;8.50;99.90
60234;DHT22;49514;43.538;-5.708;2024-03-02T08:10:25;8.50;99.90
60234;DHT22;49514;43.538;-5.708;2024-03-02T08:12:51;8.50;99.90
60234;DHT22;49514;43.538;-5.708;2024-03-02T08:15:18;8.50;99.90
60234;DHT22;49514;43.538;-5.708;2024-03-02T08:17:44;8.40;99.90
60234;DHT22;49514;43.538;-5.708;2024-03-02T08:20:14;8.50;99.90
60234;DHT22;49514;43.538;-5.708;2024-03-02T08:22:41;8.50;99.90
60234;DHT22;49514;43.538;-5.708;2024-03-02T08:25:08;8.60;99.90
60234;DHT22;49514;43.538;-5.708;2024-03-02T08:27:35;8.60;99.90
60234;DHT22;49514;43.538;-5.708;2024-03-02T08:30:03;8.60;99.90
60234;DHT22;49514;43.538;-5.708;2024-03-02T08:32:32;8.60;99.90
60234;DHT22;49514;43.538;-5.708;2024-03-02T08:34:59;8.60;99.90
60234;DHT22;49514;43.538;-5.708;2024-03-02T08:37:26;8.60;99.90
60234;DHT22;49514;43.538;-5.708;2024-03-02T08:39:52;8.60;99.90
60234;DHT22;49514;43.538;-5.708;2024-03-02T08:42:19;8.70;99.90
60234;DHT22;49514;43.538;-5.708;2024-03-02T08:44:46;8.70;99.90
60234;DHT22;49514;43.538;-5.708;2024-03-02T08:47:13;8.70;99.90
60234;DHT22;49514;43.538;-5.708;2024-03-02T08:49:40;8.60;99.90
60234;DHT22;49514;43.538;-5.708;2024-03-02T08:52:06;8.70;99.90
60234;DHT22;49514;43.538;-5.708;2024-03-02T08:54:33;8.70;99.90
60234;DHT22;49514;43.538;-5.708;2024-03-02T08:57:00;8.70;99.90
60234;DHT22;49514;43.538;-5.708;2024-03-02T08:59:27;8.80;99.90
60234;DHT22;49514;43.538;-5.708;2024-03-02T09:01:54;8.90;99.90
60234;DHT22;49514;43.538;-5.708;2024-03-02T09:04:21;8.90;99.90
60234;DHT22;49514;43.538;-5.708;2024-03-02T09:06:47;8.90;99.90
60234;DHT22;49514;43.538;-5.708;2024-03-02T09:09:14;8.90;99.90
60234;DHT22;49514;43.538;-5.708;2024-03-02T09:11:41;8.90;99.90
60234;DHT22;49514;43.538;-5.708;2024-03-02T09:14:07;8.90;99.90
60234;DHT22;49514;43.538;-5.708;2024-03-02T09:16:34;8.90;99.90
60234;DHT22;49514;43.538;-5.708;2024-03-02T09:19:01;8.90;99.90
60234;DHT22;49514;43.538;-5.708;2024-03-02T09:21:27;8.90;99.90
60234;DHT22;49514;43.538;-5.708;2024-03-02T09:23:56;9.00;99.90
60234;DHT22;49514;43.538;-5.708;2024-03-02T09:26:23;8.90;99.90
60234;DHT22;49514;43.538;-5.708;2024-03-02T09:28:51;9.00;99.90
60234;DHT22;49514;43.538;-5.708;2024-03-02T09:31:17;9.00;99.90
60234;DHT22;49514;43.538;-5.708;2024-03-02T09:33:44;9.10;99.90
60234;DHT22;49514;43.538;-5.708;2024-03-02T09:36:20;9.10;99.90
60234;DHT22;49514;43.538;-5.708;2024-03-02T09:38:47;9.10;99.90
60234;DHT22;49514;43.538;-5.708;2024-03-02T09:41:14;9.10;99.90
60234;DHT22;49514;43.538;-5.708;2024-03-02T09:43:41;9.10;99.90
60234;DHT22;49514;43.538;-5.708;2024-03-02T09:46:11;9.20;99.90
60234;DHT22;49514;43.538;-5.708;2024-03-02T09:48:38;9.20;99.90
60234;DHT22;49514;43.538;-5.708;2024-03-02T09:51:05;9.20;99.90
60234;DHT22;49514;43.538;-5.708;2024-03-02T09:53:33;9.10;99.90
60234;DHT22;49514;43.538;-5.708;2024-03-02T09:56:00;9.10;99.90
60234;DHT22;49514;43.538;-5.708;2024-03-02T09:58:28;9.00;99.90
60234;DHT22;49514;43.538;-5.708;2024-03-02T10:00:55;9.00;99.90
60234;DHT22;49514;43.538;-5.708;2024-03-02T10:03:23;9.00;99.90
60234;DHT22;49514;43.538;-5.708;2024-03-02T10:05:53;9.00;99.90
60234;DHT22;49514;43.538;-5.708;2024-03-02T10:08:20;9.10;99.90
60234;DHT22;49514;43.538;-5.708;2024-03-02T10:10:48;9.10;99.90
60234;DHT22;49514;43.538;-5.708;2024-03-02T10:13:15;9.20;99.90
60234;DHT22;49514;43.538;-5.708;2024-03-02T10:15:42;9.30;99.90
60234;DHT22;49514;43.538;-5.708;2024-03-02T10:18:11;9.30;99.90
60234;DHT22;49514;43.538;-5.708;2024-03-02T10:20:42;9.40;99.90
60234;DHT22;49514;43.538;-5.708;2024-03-02T10:23:14;9.50;99.90
60234;DHT22;49514;43.538;-5.708;2024-03-02T10:25:41;9.50;99.90
60234;DHT22;49514;43.538;-5.708;2024-03-02T10:28:08;9.50;99.90
60234;DHT22;49514;43.538;-5.708;2024-03-02T10:30:36;9.60;99.90
60234;DHT22;49514;43.538;-5.708;2024-03-02T10:33:04;9.60;99.90
60234;DHT22;49514;43.538;-5.708;2024-03-02T10:35:32;9.60;99.90
60234;DHT22;49514;43.538;-5.708;2024-03-02T10:38:04;9.60;99.90
60234;DHT22;49514;43.538;-5.708;2024-03-02T10:40:31;9.60;99.90
60234;DHT22;49514;43.538;-5.708;2024-03-02T10:43:00;9.50;99.90
60234;DHT22;49514;43.538;-5.708;2024-03-02T10:45:28;9.40;99.90
60234;DHT22;49514;43.538;-5.708;2024-03-02T10:47:56;9.30;99.90
60234;DHT22;49514;43.538;-5.708;2024-03-02T10:50:27;9.40;99.90
60234;DHT22;49514;43.538;-5.708;2024-03-02T10:52:55;9.50;99.90
60234;DHT22;49514;43.538;-5.708;2024-03-02T10:55:21;9.50;99.90
60234;DHT22;49514;43.538;-5.708;2024-03-02T10:57:53;9.60;99.90
60234;DHT22;49514;43.538;-5.708;2024-03-02T11:00:23;9.60;99.90
60234;DHT22;49514;43.538;-5.708;2024-03-02T11:02:58;9.70;99.90
60234;DHT22;49514;43.538;-5.708;2024-03-02T11:05:27;9.70;99.90
60234;DHT22;49514;43.538;-5.708;2024-03-02T11:08:01;9.80;99.90
60234;DHT22;49514;43.538;-5.708;2024-03-02T11:13:14;9.80;99.90
60234;DHT22;49514;43.538;-5.708;2024-03-02T11:15:43;10.10;99.90
60234;DHT22;49514;43.538;-5.708;2024-03-02T11:18:11;10.10;99.90
60234;DHT22;49514;43.538;-5.708;2024-03-02T11:20:39;10.30;99.90
60234;DHT22;49514;43.538;-5.708;2024-03-02T11:23:09;10.60;99.90
60234;DHT22;49514;43.538;-5.708;2024-03-02T11:25:36;11.00;99.90
60234;DHT22;49514;43.538;-5.708;2024-03-02T11:28:05;11.30;99.90
60234;DHT22;49514;43.538;-5.708;2024-03-02T11:33:06;11.60;99.90
60234;DHT22;49514;43.538;-5.708;2024-03-02T11:35:35;11.50;99.90
60234;DHT22;49514;43.538;-5.708;2024-03-02T11:38:01;11.60;99.90
60234;DHT22;49514;43.538;-5.708;2024-03-02T11:40:30;11.70;99.90
60234;DHT22;49514;43.538;-5.708;2024-03-02T11:42:59;11.90;99.90
60234;DHT22;49514;43.538;-5.708;2024-03-02T11:45:26;11.90;99.90
60234;DHT22;49514;43.538;-5.708;2024-03-02T11:47:54;12.00;99.90
60234;DHT22;49514;43.538;-5.708;2024-03-02T11:50:34;12.10;99.90
60234;DHT22;49514;43.538;-5.708;2024-03-02T11:53:08;12.10;99.90
60234;DHT22;49514;43.538;-5.708;2024-03-02T11:55:36;12.00;99.90
60234;DHT22;49514;43.538;-5.708;2024-03-02T11:58:04;11.80;99.90
60234;DHT22;49514;43.538;-5.708;2024-03-02T12:00:31;11.70;99.90
60234;DHT22;49514;43.538;-5.708;2024-03-02T12:03:05;11.40;99.90
60234;DHT22;49514;43.538;-5.708;2024-03-02T12:05:33;11.00;99.90
60234;DHT22;49514;43.538;-5.708;2024-03-02T12:08:08;10.80;99.90
60234;DHT22;49514;43.538;-5.708;2024-03-02T12:10:36;10.60;99.90
60234;DHT22;49514;43.538;-5.708;2024-03-02T12:13:05;10.60;99.90
60234;DHT22;49514;43.538;-5.708;2024-03-02T12:15:35;10.40;99.90
60234;DHT22;49514;43.538;-5.708;2024-03-02T12:18:05;10.30;99.90
60234;DHT22;49514;43.538;-5.708;2024-03-02T12:20:33;10.20;99.90
60234;DHT22;49514;43.538;-5.708;2024-03-02T12:23:02;10.20;99.90
60234;DHT22;49514;43.538;-5.708;2024-03-02T12:25:31;10.10;99.90
60234;DHT22;49514;43.538;-5.708;2024-03-02T12:28:00;10.10;99.90
60234;DHT22;49514;43.538;-5.708;2024-03-02T12:30:30;10.20;99.90
60234;DHT22;49514;43.538;-5.708;2024-03-02T12:32:58;10.20;99.90
60234;DHT22;49514;43.538;-5.708;2024-03-02T12:35:26;10.30;99.90
60234;DHT22;49514;43.538;-5.708;2024-03-02T12:37:53;10.30;99.90
60234;DHT22;49514;43.538;-5.708;2024-03-02T12:40:21;10.20;99.90
60234;DHT22;49514;43.538;-5.708;2024-03-02T12:42:49;10.40;99.90
60234;DHT22;49514;43.538;-5.708;2024-03-02T12:45:17;10.40;99.90
60234;DHT22;49514;43.538;-5.708;2024-03-02T12:47:50;10.50;99.90
60234;DHT22;49514;43.538;-5.708;2024-03-02T12:50:20;10.70;99.90
60234;DHT22;49514;43.538;-5.708;2024-03-02T12:52:54;11.00;99.90
60234;DHT22;49514;43.538;-5.708;2024-03-02T12:55:22;11.00;99.90
60234;DHT22;49514;43.538;-5.708;2024-03-02T12:57:52;11.20;99.90
60234;DHT22;49514;43.538;-5.708;2024-03-02T13:00:20;11.50;99.90
60234;DHT22;49514;43.538;-5.708;2024-03-02T13:02:47;11.70;99.90
60234;DHT22;49514;43.538;-5.708;2024-03-02T13:05:15;11.80;99.90
60234;DHT22;49514;43.538;-5.708;2024-03-02T13:07:41;11.80;99.90
60234;DHT22;49514;43.538;-5.708;2024-03-02T13:10:14;11.80;99.90
60234;DHT22;49514;43.538;-5.708;2024-03-02T13:12:41;11.80;99.90
60234;DHT22;49514;43.538;-5.708;2024-03-02T13:15:08;11.80;99.90
60234;DHT22;49514;43.538;-5.708;2024-03-02T13:17:36;11.80;99.90
60234;DHT22;49514;43.538;-5.708;2024-03-02T13:20:02;11.80;99.90
60234;DHT22;49514;43.538;-5.708;2024-03-02T13:22:30;11.80;99.90
60234;DHT22;49514;43.538;-5.708;2024-03-02T13:24:57;12.00;99.90
60234;DHT22;49514;43.538;-5.708;2024-03-02T13:27:26;12.20;99.90
60234;DHT22;49514;43.538;-5.708;2024-03-02T13:29:52;12.50;99.90
60234;DHT22;49514;43.538;-5.708;2024-03-02T13:32:20;12.70;99.90
60234;DHT22;49514;43.538;-5.708;2024-03-02T13:34:50;13.10;99.90
60234;DHT22;49514;43.538;-5.708;2024-03-02T13:37:16;13.60;99.90
60234;DHT22;49514;43.538;-5.708;2024-03-02T13:39:43;14.00;99.90
60234;DHT22;49514;43.538;-5.708;2024-03-02T13:42:10;14.70;99.90
60234;DHT22;49514;43.538;-5.708;2024-03-02T13:44:39;15.20;99.90
60234;DHT22;49514;43.538;-5.708;2024-03-02T13:47:06;16.30;99.90
60234;DHT22;49514;43.538;-5.708;2024-03-02T13:49:32;16.50;99.90
60234;DHT22;49514;43.538;-5.708;2024-03-02T13:52:03;16.40;99.90
60234;DHT22;49514;43.538;-5.708;2024-03-02T13:54:54;16.20;99.90
60234;DHT22;49514;43.538;-5.708;2024-03-02T13:57:21;15.90;99.90
60234;DHT22;49514;43.538;-5.708;2024-03-02T13:59:47;15.60;99.90
60234;DHT22;49514;43.538;-5.708;2024-03-02T14:02:14;14.90;99.90
60234;DHT22;49514;43.538;-5.708;2024-03-02T14:04:41;14.30;99.90
60234;DHT22;49514;43.538;-5.708;2024-03-02T14:07:07;13.60;99.90
60234;DHT22;49514;43.538;-5.708;2024-03-02T14:09:34;13.20;99.90
60234;DHT22;49514;43.538;-5.708;2024-03-02T14:12:01;12.80;99.90
60234;DHT22;49514;43.538;-5.708;2024-03-02T14:14:28;12.30;99.90
60234;DHT22;49514;43.538;-5.708;2024-03-02T14:16:55;12.10;99.90
60234;DHT22;49514;43.538;-5.708;2024-03-02T14:19:30;12.00;99.90
60234;DHT22;49514;43.538;-5.708;2024-03-02T14:21:57;12.10;99.90
60234;DHT22;49514;43.538;-5.708;2024-03-02T14:24:23;12.30;99.90
60234;DHT22;49514;43.538;-5.708;2024-03-02T14:26:54;12.90;99.90
60234;DHT22;49514;43.538;-5.708;2024-03-02T14:29:23;13.70;99.90
60234;DHT22;49514;43.538;-5.708;2024-03-02T14:31:50;14.60;99.90
60234;DHT22;49514;43.538;-5.708;2024-03-02T14:34:17;15.40;99.90
60234;DHT22;49514;43.538;-5.708;2024-03-02T14:36:43;15.90;99.90
60234;DHT22;49514;43.538;-5.708;2024-03-02T14:39:10;16.00;99.90
60234;DHT22;49514;43.538;-5.708;2024-03-02T14:41:37;15.70;99.90
60234;DHT22;49514;43.538;-5.708;2024-03-02T14:44:04;15.40;99.90
60234;DHT22;49514;43.538;-5.708;2024-03-02T14:46:30;15.20;99.90
60234;DHT22;49514;43.538;-5.708;2024-03-02T14:48:57;15.70;99.90
60234;DHT22;49514;43.538;-5.708;2024-03-02T14:51:24;16.40;99.90
60234;DHT22;49514;43.538;-5.708;2024-03-02T14:53:50;16.40;99.90
60234;DHT22;49514;43.538;-5.708;2024-03-02T14:56:17;15.80;99.90
60234;DHT22;49514;43.538;-5.708;2024-03-02T14:58:44;15.20;99.90
60234;DHT22;49514;43.538;-5.708;2024-03-02T15:01:11;14.80;99.90
60234;DHT22;49514;43.538;-5.708;2024-03-02T15:03:38;14.60;99.90
60234;DHT22;49514;43.538;-5.708;2024-03-02T15:06:05;14.20;99.90
60234;DHT22;49514;43.538;-5.708;2024-03-02T15:08:34;14.00;99.90
60234;DHT22;49514;43.538;-5.708;2024-03-02T15:11:01;13.70;99.90
60234;DHT22;49514;43.538;-5.708;2024-03-02T15:13:30;13.50;99.90
60234;DHT22;49514;43.538;-5.708;2024-03-02T15:15:57;13.20;99.90
60234;DHT22;49514;43.538;-5.708;2024-03-02T15:18:24;13.20;99.90
60234;DHT22;49514;43.538;-5.708;2024-03-02T15:20:51;13.00;99.90
60234;DHT22;49514;43.538;-5.708;2024-03-02T15:23:17;12.70;99.90
60234;DHT22;49514;43.538;-5.708;2024-03-02T15:25:43;12.50;99.90
60234;DHT22;49514;43.538;-5.708;2024-03-02T15:28:11;12.30;99.90
60234;DHT22;49514;43.538;-5.708;2024-03-02T15:30:38;12.10;99.90
60234;DHT22;49514;43.538;-5.708;2024-03-02T15:33:04;12.10;99.90
60234;DHT22;49514;43.538;-5.708;2024-03-02T15:35:31;12.00;99.90
60234;DHT22;49514;43.538;-5.708;2024-03-02T15:37:58;11.90;99.90
60234;DHT22;49514;43.538;-5.708;2024-03-02T15:40:25;12.10;99.90